createdAt,value
2022-11-03T00:01:58.645Z,19.46
2022-11-03T00:04:25.589Z,19.46
2022-11-03T00:06:54.684Z,19.08
2022-11-03T00:09:23.168Z,19.68
2022-11-03T00:11:51.313Z,19.69
2022-11-03T00:14:18.670Z,19.43
2022-11-03T00:16:46.026Z,19.39
2022-11-03T00:19:15.238Z,19.16
2022-11-03T00:21:42.107Z,19.58
2022-11-03T00:24:09.199Z,19.41
2022-11-03T00:26:36.966Z,18.62
2022-11-03T00:29:08.794Z,18.57
2022-11-03T00:31:37.621Z,18.67
2022-11-03T00:34:05.481Z,18.87
2022-11-03T00:36:35.826Z,18.63
2022-11-03T00:39:03.505Z,18.78
2022-11-03T00:41:30.371Z,19.68
2022-11-03T00:43:57.654Z,19.69
2022-11-03T00:46:25.693Z,19.13
2022-11-03T00:48:52.597Z,19.07
2022-11-03T00:51:21.703Z,18.71
2022-11-03T00:53:53.033Z,18.74
2022-11-03T00:56:22.805Z,18.62
2022-11-03T01:01:53.266Z,18.42
2022-11-03T01:04:38.827Z,18.44
2022-11-03T01:07:06.305Z,18.58
2022-11-03T01:09:38.600Z,18.54
2022-11-03T01:12:09.609Z,18.85
2022-11-03T01:14:41.674Z,19.38
2022-11-03T01:17:10.881Z,19.87
2022-11-03T01:19:37.894Z,19.30
2022-11-03T01:22:07.827Z,19.24
2022-11-03T01:24:38.164Z,19.21
2022-11-03T01:27:04.984Z,18.97
2022-11-03T01:29:31.935Z,18.28
2022-11-03T01:31:58.972Z,17.97
2022-11-03T01:34:25.927Z,17.71
2022-11-03T01:36:52.784Z,18.89
2022-11-03T01:39:20.245Z,18.12
2022-11-03T01:41:51.391Z,18.57
2022-11-03T01:44:18.199Z,18.97
2022-11-03T01:46:55.826Z,18.51
2022-11-03T01:49:32.956Z,18.48
2022-11-03T01:52:12.154Z,18.66
2022-11-03T01:54:39.586Z,18.72
2022-11-03T01:57:10.922Z,17.75
2022-11-03T01:59:38.397Z,17.91
2022-11-03T02:02:05.604Z,18.33
2022-11-03T02:04:33.748Z,18.76
2022-11-03T02:07:23.202Z,18.04
2022-11-03T02:09:50.034Z,17.60
2022-11-03T02:12:17.447Z,16.29
2022-11-03T02:14:59.026Z,17.38
2022-11-03T02:17:28.494Z,18.69
2022-11-03T02:19:59.846Z,18.33
2022-11-03T02:22:46.884Z,18.36
2022-11-03T02:25:31.138Z,18.93
2022-11-03T02:27:58.821Z,18.94
2022-11-03T02:30:30.924Z,18.69
2022-11-03T02:33:13.713Z,18.05
2022-11-03T02:35:52.800Z,16.95
2022-11-03T02:38:21.134Z,16.85
2022-11-03T02:40:52.322Z,16.48
2022-11-03T02:43:20.658Z,16.17
2022-11-03T02:45:48.430Z,16.45
2022-11-03T02:48:16.366Z,16.23
2022-11-03T02:50:43.198Z,16.41
2022-11-03T02:53:14.308Z,16.20
2022-11-03T02:55:52.816Z,16.49
2022-11-03T02:58:42.507Z,17.43
2022-11-03T03:01:17.915Z,17.53
2022-11-03T03:03:57.954Z,16.98
2022-11-03T03:06:29.919Z,16.82
2022-11-03T03:09:02.997Z,17.04
2022-11-03T03:11:39.582Z,17.83
2022-11-03T03:14:07.850Z,17.35
2022-11-03T03:16:39.130Z,17.43
2022-11-03T03:19:23.431Z,17.29
2022-11-03T03:21:53.676Z,17.03
2022-11-03T03:25:06.841Z,17.57
2022-11-03T03:27:35.236Z,17.05
2022-11-03T03:30:05.818Z,16.49
2022-11-03T03:32:36.541Z,16.32
2022-11-03T03:35:07.739Z,17.17
2022-11-03T03:37:40.534Z,16.81
2022-11-03T03:40:11.677Z,16.44
2022-11-03T03:42:39.596Z,16.69
2022-11-03T03:45:08.492Z,17.21
2022-11-03T03:47:35.678Z,17.27
2022-11-03T03:50:02.594Z,17.21
2022-11-03T03:52:29.828Z,17.77
2022-11-03T03:54:57.032Z,17.39
2022-11-03T03:57:24.844Z,17.05
2022-11-03T03:59:51.970Z,16.58
2022-11-03T04:02:18.989Z,16.17
2022-11-03T04:04:45.884Z,15.99
2022-11-03T04:07:31.424Z,15.76
2022-11-03T04:09:58.250Z,15.43
2022-11-03T04:12:43.541Z,15.10
2022-11-03T04:15:32.161Z,14.87
2022-11-03T04:18:17.747Z,14.97
2022-11-03T04:21:03.311Z,14.66
2022-11-03T04:23:30.217Z,13.64
2022-11-03T04:25:57.776Z,13.68
2022-11-03T04:28:25.990Z,13.49
2022-11-03T04:30:58.710Z,15.11
2022-11-03T04:33:26.487Z,14.61
2022-11-03T04:35:54.199Z,15.26
2022-11-03T04:38:23.366Z,14.82
2022-11-03T04:40:55.162Z,15.45
2022-11-03T04:43:24.386Z,15.89
2022-11-03T04:45:51.391Z,16.04
2022-11-03T04:48:25.191Z,15.59
2022-11-03T04:51:03.163Z,15.61
2022-11-03T04:53:32.378Z,15.00
2022-11-03T04:56:04.465Z,15.64
2022-11-03T04:58:35.550Z,16.18
2022-11-03T05:01:04.284Z,15.82
2022-11-03T05:03:35.304Z,14.69
2022-11-03T05:06:16.691Z,14.68
2022-11-03T05:08:46.453Z,14.79
2022-11-03T05:11:21.349Z,14.90
2022-11-03T05:13:49.062Z,15.22
2022-11-03T05:16:16.584Z,15.24
2022-11-03T05:18:45.242Z,15.38
2022-11-03T05:21:17.494Z,15.72
2022-11-03T05:23:49.278Z,15.31
2022-11-03T05:26:20.961Z,14.98
2022-11-03T05:28:52.551Z,15.11
2022-11-03T05:31:28.147Z,14.95
2022-11-03T05:33:58.387Z,15.21
2022-11-03T05:36:26.793Z,14.96
2022-11-03T05:39:00.298Z,14.53
2022-11-03T05:41:29.215Z,15.01
2022-11-03T05:44:27.170Z,15.55
2022-11-03T05:46:54.019Z,14.62
2022-11-03T05:49:21.488Z,14.56
2022-11-03T05:51:48.670Z,15.16
2022-11-03T05:54:35.428Z,15.11
2022-11-03T05:57:02.275Z,14.83
2022-11-03T05:59:30.073Z,15.38
2022-11-03T06:01:59.914Z,15.58
2022-11-03T06:04:33.455Z,15.32
2022-11-03T06:07:08.892Z,15.04
2022-11-03T06:09:35.711Z,14.99
2022-11-03T06:12:05.835Z,15.16
2022-11-03T06:14:33.436Z,15.39
2022-11-03T06:17:06.036Z,15.65
2022-11-03T06:19:43.647Z,15.50
2022-11-03T06:22:28.886Z,15.35
2022-11-03T06:24:58.749Z,15.56
2022-11-03T06:27:26.912Z,16.74
2022-11-03T06:30:00.498Z,17.04
2022-11-03T06:32:28.354Z,17.31
2022-11-03T06:34:59.081Z,17.51
2022-11-03T06:37:32.725Z,18.02
2022-11-03T06:40:11.237Z,18.31
2022-11-03T06:42:41.283Z,18.75
2022-11-03T06:45:23.104Z,19.73
2022-11-03T06:47:50.494Z,20.60
2022-11-03T06:50:30.141Z,21.41
2022-11-03T06:52:58.009Z,21.26
2022-11-03T06:55:25.702Z,21.51
2022-11-03T06:58:15.474Z,21.34
2022-11-03T07:00:48.930Z,20.75
2022-11-03T07:03:33.572Z,21.11
2022-11-03T07:06:24.805Z,21.71
2022-11-03T07:08:57.010Z,22.29
2022-11-03T07:11:26.469Z,23.33
2022-11-03T07:13:57.216Z,23.76
2022-11-03T07:16:32.440Z,23.92
2022-11-03T07:19:00.936Z,23.99
2022-11-03T07:21:38.269Z,24.74
2022-11-03T07:24:34.027Z,24.91
2022-11-03T07:27:13.158Z,25.24
2022-11-03T07:29:40.547Z,25.63
2022-11-03T07:32:21.965Z,26.21
2022-11-03T07:34:49.899Z,26.53
2022-11-03T07:37:21.180Z,26.44
2022-11-03T07:39:49.056Z,25.43
2022-11-03T07:42:19.131Z,23.89
2022-11-03T07:44:46.479Z,25.07
2022-11-03T07:47:25.991Z,24.80
2022-11-03T07:49:53.002Z,23.67
2022-11-03T07:52:22.337Z,22.64
2022-11-03T07:54:51.541Z,22.75
2022-11-03T07:57:27.038Z,21.09
2022-11-03T08:00:08.919Z,21.80
2022-11-03T08:02:38.159Z,21.04
2022-11-03T08:05:05.678Z,21.12
2022-11-03T08:07:32.859Z,20.80
2022-11-03T08:09:59.762Z,20.75
2022-11-03T08:12:26.634Z,20.93
2022-11-03T08:14:53.530Z,20.86
2022-11-03T08:17:20.355Z,21.64
2022-11-03T08:19:47.229Z,20.58
2022-11-03T08:22:14.096Z,20.03
2022-11-03T08:24:41.021Z,20.51
2022-11-03T08:27:07.929Z,20.23
2022-11-03T08:29:34.837Z,19.67
2022-11-03T08:32:01.743Z,18.39
2022-11-03T08:34:28.652Z,19.36
2022-11-03T08:36:55.510Z,19.18
2022-11-03T08:39:22.336Z,19.80
2022-11-03T08:41:49.165Z,19.82
2022-11-03T08:44:15.991Z,19.53
2022-11-03T08:46:42.904Z,20.09
2022-11-03T08:49:09.793Z,20.70
2022-11-03T08:51:41.444Z,20.40
2022-11-03T08:54:10.912Z,19.98
2022-11-03T08:56:37.799Z,19.30
2022-11-03T08:59:04.654Z,19.70
2022-11-03T09:01:31.547Z,19.46
2022-11-03T09:03:58.586Z,18.87
2022-11-03T09:06:25.564Z,19.00
2022-11-03T09:11:39.187Z,20.17
2022-11-03T09:14:06.026Z,19.92
2022-11-03T09:16:32.893Z,19.90
2022-11-03T09:18:59.822Z,20.48
2022-11-03T09:21:26.649Z,19.61
2022-11-03T09:23:53.543Z,20.43
2022-11-03T09:26:20.442Z,21.19
2022-11-03T09:28:47.449Z,21.17
2022-11-03T09:31:14.366Z,20.96
2022-11-03T09:33:41.225Z,20.07
2022-11-03T09:36:08.471Z,21.74
2022-11-03T09:38:35.429Z,22.81
2022-11-03T09:41:09.627Z,21.91
2022-11-03T09:43:46.293Z,21.92
2022-11-03T09:46:14.246Z,22.27
2022-11-03T09:48:41.148Z,22.01
2022-11-03T09:51:10.120Z,22.40
2022-11-03T09:53:37.215Z,21.55
2022-11-03T09:56:04.192Z,22.63
2022-11-03T09:58:34.465Z,22.44
2022-11-03T10:01:01.782Z,22.74
2022-11-03T10:03:29.198Z,21.80
2022-11-03T10:05:56.460Z,21.50
2022-11-03T10:08:29.105Z,21.63
2022-11-03T10:10:56.542Z,21.18
2022-11-03T10:13:47.761Z,20.79
2022-11-03T10:16:19.316Z,20.47
2022-11-03T10:18:46.393Z,21.11
2022-11-03T10:21:31.530Z,20.73
2022-11-03T10:23:58.380Z,20.65
2022-11-03T10:26:25.240Z,21.30
2022-11-03T10:29:04.521Z,20.87
2022-11-03T10:31:35.697Z,20.77
2022-11-03T10:34:03.123Z,20.70
2022-11-03T10:36:31.889Z,20.76
2022-11-03T10:38:59.457Z,20.96
2022-11-03T10:41:31.429Z,20.60
2022-11-03T10:44:02.771Z,21.56
2022-11-03T10:46:48.997Z,21.58
2022-11-03T10:49:19.534Z,21.30
2022-11-03T10:51:54.562Z,21.41
2022-11-03T10:54:23.464Z,20.62
2022-11-03T10:56:51.990Z,19.30
2022-11-03T10:59:21.212Z,19.70
2022-11-03T11:01:48.382Z,19.98
2022-11-03T11:04:19.818Z,20.34
2022-11-03T11:06:47.384Z,20.51
2022-11-03T11:09:28.110Z,20.89
2022-11-03T11:12:05.227Z,21.16
2022-11-03T11:14:36.503Z,21.33
2022-11-03T11:17:04.034Z,20.56
2022-11-03T11:19:31.483Z,20.98
2022-11-03T11:22:00.079Z,21.40
2022-11-03T11:24:45.868Z,21.10
2022-11-03T11:27:34.437Z,21.52
2022-11-03T11:30:08.595Z,21.06
2022-11-03T11:32:44.827Z,20.97
2022-11-03T11:35:23.949Z,19.91
2022-11-03T11:37:51.071Z,19.37
2022-11-03T11:40:26.648Z,20.34
2022-11-03T11:43:02.582Z,19.51
2022-11-03T11:46:06.889Z,19.14
2022-11-03T11:48:33.961Z,19.53
2022-11-03T11:51:01.735Z,19.60
2022-11-03T11:53:32.820Z,19.52
2022-11-03T11:56:01.830Z,19.78
2022-11-03T11:58:43.704Z,18.25
2022-11-03T12:01:30.813Z,19.33
2022-11-03T12:03:59.900Z,19.27
2022-11-03T12:06:34.750Z,18.93
2022-11-03T12:09:16.708Z,18.90
2022-11-03T12:11:46.111Z,18.73
2022-11-03T12:14:29.100Z,18.57
2022-11-03T12:16:56.993Z,18.80
2022-11-03T12:19:38.927Z,18.83
2022-11-03T12:22:33.200Z,17.90
2022-11-03T12:25:01.403Z,18.65
2022-11-03T12:27:29.034Z,18.86
2022-11-03T12:29:56.715Z,18.54
2022-11-03T12:32:33.188Z,18.91
2022-11-03T12:35:02.722Z,17.58
2022-11-03T12:37:29.626Z,17.53
2022-11-03T12:39:56.477Z,17.48
2022-11-03T12:42:25.136Z,17.90
2022-11-03T12:44:52.771Z,17.85
2022-11-03T12:47:20.517Z,17.28
2022-11-03T12:49:50.384Z,17.33
2022-11-03T12:52:17.246Z,16.32
2022-11-03T12:54:44.591Z,16.60
2022-11-03T12:57:11.520Z,16.38
2022-11-03T12:59:38.365Z,16.64
2022-11-03T13:02:05.470Z,17.88
2022-11-03T13:04:32.492Z,17.77
2022-11-03T13:06:59.418Z,17.28
2022-11-03T13:09:26.262Z,16.83
2022-11-03T13:12:11.456Z,17.02
2022-11-03T13:14:38.269Z,16.84
2022-11-03T13:17:05.096Z,16.71
2022-11-03T13:19:31.933Z,16.72
2022-11-03T13:21:58.784Z,16.42
2022-11-03T13:24:25.650Z,15.78
2022-11-03T13:26:52.522Z,15.53
2022-11-03T13:29:19.529Z,15.90
2022-11-03T13:31:46.388Z,15.86
2022-11-03T13:34:13.261Z,16.07
2022-11-03T13:36:40.116Z,15.81
2022-11-03T13:39:07.033Z,15.48
2022-11-03T13:41:33.945Z,15.48
2022-11-03T13:44:00.901Z,15.98
2022-11-03T13:46:27.743Z,15.63
2022-11-03T13:51:41.740Z,14.80
2022-11-03T13:59:42.463Z,15.15
2022-11-03T14:04:56.484Z,15.02
2022-11-03T14:07:23.375Z,15.50
2022-11-03T14:09:50.318Z,15.33
2022-11-03T14:12:32.260Z,15.27
2022-11-03T14:15:04.220Z,14.64
2022-11-03T14:17:31.552Z,14.58
2022-11-03T14:20:03.681Z,14.96
2022-11-03T14:22:31.742Z,15.26
2022-11-03T14:24:58.846Z,15.24
2022-11-03T14:27:26.184Z,14.70
2022-11-03T14:29:53.210Z,15.05
2022-11-03T14:32:20.490Z,14.96
2022-11-03T14:34:48.095Z,14.52
2022-11-03T14:37:15.590Z,13.62
2022-11-03T14:39:42.565Z,13.84
2022-11-03T14:42:15.473Z,14.15
2022-11-03T14:44:45.202Z,13.95
2022-11-03T14:47:14.337Z,14.38
2022-11-03T14:49:41.327Z,14.86
2022-11-03T14:52:08.295Z,14.08
2022-11-03T14:54:36.525Z,13.77
2022-11-03T14:57:04.439Z,14.24
2022-11-03T14:59:31.844Z,14.31
2022-11-03T15:01:59.211Z,14.07
2022-11-03T15:04:26.545Z,14.07
2022-11-03T15:06:53.412Z,14.93
2022-11-03T15:09:20.422Z,14.80
2022-11-03T15:11:47.417Z,14.38
2022-11-03T15:14:14.328Z,13.76
2022-11-03T15:16:41.255Z,14.52
2022-11-03T15:19:08.257Z,13.83
2022-11-03T15:21:35.505Z,13.82
2022-11-03T15:26:49.822Z,14.41
2022-11-03T15:29:16.659Z,13.70
2022-11-03T15:31:47.977Z,13.74
2022-11-03T15:34:16.413Z,13.74
2022-11-03T15:36:43.295Z,13.64
2022-11-03T15:39:10.240Z,14.10
2022-11-03T15:41:37.076Z,13.99
2022-11-03T15:44:03.954Z,13.14
2022-11-03T15:46:30.825Z,13.42
2022-11-03T15:48:57.866Z,14.23
2022-11-03T15:51:25.420Z,13.74
2022-11-03T15:53:57.924Z,13.48
2022-11-03T15:56:26.226Z,13.42
2022-11-03T15:58:53.078Z,13.57
2022-11-03T16:01:20.608Z,13.54
2022-11-03T16:03:47.664Z,14.08
2022-11-03T16:06:14.327Z,13.56
2022-11-03T16:08:41.204Z,13.40
2022-11-03T16:11:09.236Z,13.32
2022-11-03T16:13:36.406Z,13.62
2022-11-03T16:16:03.533Z,13.65
2022-11-03T16:18:30.543Z,14.15
2022-11-03T16:20:57.403Z,14.26
2022-11-03T16:23:24.414Z,14.07
2022-11-03T16:25:51.294Z,13.72
2022-11-03T16:28:18.139Z,13.76
2022-11-03T16:30:48.441Z,13.81
2022-11-03T16:33:18.065Z,13.35
2022-11-03T16:35:44.906Z,14.33
2022-11-03T16:38:11.664Z,14.03
2022-11-03T16:40:38.523Z,13.62
2022-11-03T16:43:05.344Z,13.69
2022-11-03T16:45:37.257Z,13.03
2022-11-03T16:48:05.492Z,13.61
2022-11-03T16:50:32.915Z,13.20
2022-11-03T16:52:59.875Z,14.03
2022-11-03T16:55:26.765Z,13.82
2022-11-03T16:57:53.642Z,14.67
2022-11-03T17:00:21.052Z,14.72
2022-11-03T17:02:48.140Z,14.90
2022-11-03T17:05:16.815Z,13.76
2022-11-03T17:07:46.308Z,13.83
2022-11-03T17:10:15.714Z,14.40
2022-11-03T17:12:42.577Z,14.66
2022-11-03T17:15:09.903Z,14.08
2022-11-03T17:17:36.950Z,13.46
2022-11-03T17:20:05.227Z,13.78
2022-11-03T17:22:32.065Z,13.09
2022-11-03T17:24:58.770Z,12.50
2022-11-03T17:27:33.362Z,13.23
2022-11-03T17:30:02.168Z,12.90
2022-11-03T17:32:31.186Z,13.18
2022-11-03T17:34:58.470Z,13.24
2022-11-03T17:37:25.958Z,13.49
2022-11-03T17:39:52.894Z,12.72
2022-11-03T17:42:27.369Z,13.24
2022-11-03T17:44:55.753Z,12.95
2022-11-03T17:47:23.234Z,13.17
2022-11-03T17:49:50.327Z,13.15
2022-11-03T17:52:27.864Z,12.82
2022-11-03T17:54:57.630Z,13.11
2022-11-03T17:57:25.664Z,12.15
2022-11-03T17:59:58.236Z,12.31
2022-11-03T18:02:26.761Z,12.55
2022-11-03T18:05:00.187Z,12.86
2022-11-03T18:07:28.415Z,12.41
2022-11-03T18:09:56.308Z,12.41
2022-11-03T18:12:44.827Z,12.78
2022-11-03T18:15:15.881Z,12.52
2022-11-03T18:17:42.795Z,12.97
2022-11-03T18:20:30.213Z,12.56
2022-11-03T18:23:11.617Z,12.37
2022-11-03T18:25:38.510Z,12.41
2022-11-03T18:28:05.590Z,12.92
2022-11-03T18:30:32.721Z,12.89
2022-11-03T18:32:59.583Z,12.63
2022-11-03T18:35:29.217Z,11.87
2022-11-03T18:37:56.713Z,12.39
2022-11-03T18:40:23.601Z,12.59
2022-11-03T18:42:50.427Z,12.73
2022-11-03T18:45:17.834Z,12.71
2022-11-03T18:47:45.018Z,11.86
2022-11-03T18:50:17.219Z,11.47
2022-11-03T18:52:48.591Z,12.49
2022-11-03T18:55:16.475Z,12.22
2022-11-03T18:57:44.301Z,12.04
2022-11-03T19:00:17.473Z,12.28
2022-11-03T19:02:44.384Z,11.83
2022-11-03T19:05:15.373Z,12.33
2022-11-03T19:07:45.422Z,12.43
2022-11-03T19:10:20.355Z,13.18
2022-11-03T19:12:47.487Z,13.85
2022-11-03T19:15:22.911Z,12.95
2022-11-03T19:17:51.558Z,12.88
2022-11-03T19:20:18.866Z,12.22
2022-11-03T19:22:46.153Z,12.82
2022-11-03T19:25:14.654Z,13.44
2022-11-03T19:27:44.706Z,14.07
2022-11-03T19:30:14.457Z,13.23
2022-11-03T19:32:44.793Z,12.98
2022-11-03T19:35:21.241Z,12.49
2022-11-03T19:37:50.605Z,13.41
2022-11-03T19:40:19.082Z,12.65
2022-11-03T19:42:48.755Z,13.26
2022-11-03T19:45:18.685Z,13.08
2022-11-03T19:48:18.170Z,13.45
2022-11-03T19:50:36.891Z,12.85
2022-11-03T19:53:05.927Z,13.23
2022-11-03T19:55:41.216Z,13.73
2022-11-03T19:58:14.459Z,13.72
2022-11-03T20:00:41.590Z,14.44
2022-11-03T20:03:08.507Z,14.21
2022-11-03T20:05:35.472Z,14.27
2022-11-03T20:08:05.268Z,14.31
2022-11-03T20:10:35.834Z,14.06
2022-11-03T20:13:03.737Z,14.29
2022-11-03T20:15:30.651Z,14.45
2022-11-03T20:17:57.499Z,14.06
2022-11-03T20:20:26.837Z,13.70
2022-11-03T20:22:56.324Z,13.57
2022-11-03T20:25:28.332Z,13.76
2022-11-03T20:27:56.772Z,14.43
2022-11-03T20:30:26.083Z,13.99
2022-11-03T20:32:53.445Z,13.97
2022-11-03T20:35:25.924Z,12.50
2022-11-03T20:37:58.410Z,13.41
2022-11-03T20:40:27.296Z,12.75
2022-11-03T20:42:56.896Z,13.44
2022-11-03T20:45:25.461Z,13.28
2022-11-03T20:47:52.711Z,13.25
2022-11-03T20:50:20.614Z,13.62
2022-11-03T20:52:48.438Z,14.24
2022-11-03T20:55:20.970Z,14.64
2022-11-03T20:57:48.749Z,14.94
2022-11-03T21:00:24.255Z,14.38
2022-11-03T21:02:52.071Z,14.45
2022-11-03T21:05:24.830Z,14.21
2022-11-03T21:07:52.253Z,13.68
2022-11-03T21:10:20.917Z,14.52
2022-11-03T21:12:48.122Z,14.30
2022-11-03T21:15:52.383Z,14.11
2022-11-03T21:18:46.662Z,14.18
2022-11-03T21:21:18.152Z,13.84
2022-11-03T21:23:47.615Z,13.81
2022-11-03T21:26:14.663Z,13.48
2022-11-03T21:28:41.626Z,14.76
2022-11-03T21:31:11.923Z,13.56
2022-11-03T21:33:38.747Z,13.70
2022-11-03T21:36:05.622Z,14.24
2022-11-03T21:38:32.467Z,14.70
2022-11-03T21:41:19.219Z,14.09
2022-11-03T21:44:04.930Z,14.68
2022-11-03T21:46:31.803Z,14.37
2022-11-03T21:49:17.309Z,14.45
2022-11-03T21:51:44.142Z,14.99
2022-11-03T21:54:10.975Z,15.24
2022-11-03T21:56:37.857Z,14.87
2022-11-03T21:59:04.748Z,14.18
2022-11-03T22:01:31.751Z,14.08
2022-11-03T22:03:59.461Z,14.58
2022-11-03T22:06:26.484Z,14.75
2022-11-03T22:08:53.312Z,15.46
2022-11-03T22:11:22.814Z,15.08
2022-11-03T22:13:51.616Z,15.11
2022-11-03T22:16:36.899Z,15.00
2022-11-03T22:19:30.708Z,13.97
2022-11-03T22:22:16.939Z,14.20
2022-11-03T22:25:02.566Z,14.42
2022-11-03T22:27:30.857Z,14.02
2022-11-03T22:30:16.380Z,14.71
2022-11-03T22:32:43.622Z,14.53
2022-11-03T22:35:30.271Z,14.41
2022-11-03T22:38:07.180Z,14.86
2022-11-03T22:40:53.568Z,14.17
2022-11-03T22:43:39.386Z,13.24
2022-11-03T22:46:06.388Z,14.19
2022-11-03T22:48:33.732Z,13.45
2022-11-03T22:51:13.356Z,13.86
2022-11-03T22:53:58.577Z,13.27
2022-11-03T22:56:28.517Z,13.43
2022-11-03T22:58:55.651Z,13.61
2022-11-03T23:01:24.680Z,13.62
2022-11-03T23:03:51.626Z,14.18
2022-11-03T23:06:25.161Z,14.42
2022-11-03T23:08:52.871Z,13.97
2022-11-03T23:11:20.988Z,13.32
2022-11-03T23:13:53.077Z,13.16
2022-11-03T23:16:22.263Z,14.26
2022-11-03T23:19:08.141Z,14.20
2022-11-03T23:21:35.294Z,14.51
2022-11-03T23:24:20.751Z,14.31
2022-11-03T23:26:48.005Z,13.37
2022-11-03T23:29:15.768Z,14.38
2022-11-03T23:31:43.837Z,13.95
2022-11-03T23:34:12.056Z,13.50
2022-11-03T23:36:39.034Z,13.83
2022-11-03T23:39:06.850Z,13.68
2022-11-03T23:41:33.786Z,13.18
2022-11-03T23:44:00.641Z,13.37
2022-11-03T23:46:47.378Z,13.52
2022-11-03T23:49:14.807Z,13.58
2022-11-03T23:51:44.912Z,13.72
2022-11-03T23:54:12.396Z,12.67
2022-11-03T23:57:00.125Z,13.12
2022-11-03T23:59:27.782Z,13.20
